Terminal Aerodrome Forecast
Issued by NWS Sterling, VA

Home | Current Version | Previous Version | Text Only | Print | Product List | Glossary On
Versions: 1 2 3 4 5 6 7 8 9 10 11 12
000
FTUS41 KLWX 311100
TAFCHO
TAF
KCHO 311126Z 3112/0112 VRB03KT P6SM FEW250
     FM311600 20007KT P6SM SCT060
     FM010000 VRB03KT P6SM BKN080=

USA.gov is the U.S. government's official web portal to all federal, state and local government web resources and services.